^^
MeteoGriva-Weather Station Historical Data
Daily Summary for October 01, 2020 Units:  English    Metric   Both
Daily Weekly Monthly Yearly Custom
  High: Low: Average:
Temperature: 74.1 °F 53.6 °F 62.6 °F
Dew Point: 58.6 °F 48.7 °F 53.1 °F
Humidity: 85.8% 55% 71%
Wind Speed: 4.5mph 0mph 0.2mph
Wind Gust: 15mph - -
Wind- - SE
Pressure: 29.7 in 29.6 in -
Precipitation: 0 in    
Historical Graphs
 
 
Tabular Data for October 01, 2020
Time Temperature Dew Point Pressure Wind Wind Speed Wind Gust Humidity Rainfall Rate (Hourly) solar
00:04 57.9 °F 50.2 °F 29.7 in Calm     75.3% 0 in 0 W/m2
00:09 58.3 °F 50.2 °F 29.7 in Calm     74.6% 0 in 0 W/m2
00:14 58.3 °F 50.5 °F 29.7 in Calm     75.2% 0 in 0 W/m2
00:19 58.3 °F 50.4 °F 29.7 in Calm     75.2% 0 in 0 W/m2
00:24 58.3 °F 50.4 °F 29.7 in Calm     75.1% 0 in 0 W/m2
00:29 57.9 °F 50.4 °F 29.7 in Calm     76.1% 0 in 0 W/m2
00:34 57.7 °F 49.6 °F 29.7 in Calm     74.3% 0 in 0 W/m2
00:39 57.7 °F 49.5 °F 29.7 in Calm     73.7% 0 in 0 W/m2
00:44 57.9 °F 50 °F 29.7 in Calm     75.1% 0 in 0 W/m2
00:49 57.9 °F 50 °F 29.7 in Calm     75.3% 0 in 0 W/m2
00:54 57.7 °F 50 °F 29.7 in Calm     75.6% 0 in 0 W/m2
00:59 57.7 °F 49.8 °F 29.7 in Calm     75.1% 0 in 0 W/m2
01:04 57.7 °F 49.8 °F 29.7 in Calm     75% 0 in 0 W/m2
01:09 57.9 °F 49.6 °F 29.7 in Calm     73.9% 0 in 0 W/m2
01:14 58.3 °F 49.6 °F 29.7 in Calm     73.2% 0 in 0 W/m2
01:19 58.1 °F 49.8 °F 29.7 in Calm     74% 0 in 0 W/m2
01:24 57.9 °F 49.6 °F 29.7 in South 0.1 mph 2.5 mph 74% 0 in 0 W/m2
01:29 57.6 °F 49.5 °F 29.7 in Calm     74.8% 0 in 0 W/m2
01:34 56.8 °F 49.3 °F 29.7 in Calm     75.8% 0 in 0 W/m2
01:39 56.8 °F 49.1 °F 29.7 in Calm   2.5 mph 75.4% 0 in 0 W/m2
01:44 56.8 °F 48.9 °F 29.7 in Calm     75.1% 0 in 0 W/m2
01:49 57 °F 49.1 °F 29.7 in Calm     75.3% 0 in 0 W/m2
01:54 57 °F 49.6 °F 29.7 in Calm     76.7% 0 in 0 W/m2
01:59 57 °F 49.8 °F 29.7 in SW 0.1 mph 2.5 mph 77% 0 in 0 W/m2
02:04 56.8 °F 49.5 °F 29.7 in WNW 0.2 mph 2.5 mph 76.7% 0 in 0 W/m2
02:09 57 °F 49.3 °F 29.7 in Calm     75.6% 0 in 0 W/m2
02:14 57.4 °F 49.1 °F 29.7 in Calm     74.3% 0 in 0 W/m2
02:19 57.4 °F 48.9 °F 29.7 in Calm     73.7% 0 in 0 W/m2
02:24 57.6 °F 48.7 °F 29.7 in Calm     72.6% 0 in 0 W/m2
02:29 57.6 °F 49.5 °F 29.7 in Calm     74.3% 0 in 0 W/m2
02:34 57.6 °F 49.3 °F 29.7 in Calm     73.7% 0 in 0 W/m2
02:39 57.6 °F 49.8 °F 29.7 in Calm     75.6% 0 in 0 W/m2
02:44 57.4 °F 50 °F 29.7 in Calm     76.2% 0 in 0 W/m2
02:49 56.8 °F 49.3 °F 29.7 in Calm     76% 0 in 0 W/m2
02:54 56.1 °F 48.9 °F 29.7 in Calm     76.8% 0 in 0 W/m2
02:59 56.1 °F 48.9 °F 29.7 in Calm     77.2% 0 in 0 W/m2
03:04 56.1 °F 49.3 °F 29.7 in Calm     77.9% 0 in 0 W/m2
03:09 56.3 °F 49.3 °F 29.7 in Calm     77.6% 0 in 0 W/m2
03:14 56.7 °F 49.1 °F 29.7 in Calm     76% 0 in 0 W/m2
03:19 56.7 °F 49.1 °F 29.7 in Calm     76% 0 in 0 W/m2
03:24 56.8 °F 49.3 °F 29.7 in Calm     76% 0 in 0 W/m2
03:29 57.2 °F 49.5 °F 29.7 in Calm     75.7% 0 in 0 W/m2
03:34 57.6 °F 50.2 °F 29.7 in Calm     76.6% 0 in 0 W/m2
03:39 57.6 °F 50.4 °F 29.7 in Calm     76.8% 0 in 0 W/m2
03:44 57.6 °F 50.2 °F 29.7 in Calm     76.8% 0 in 0 W/m2
03:49 57.4 °F 50.2 °F 29.7 in Calm     77.3% 0 in 0 W/m2
03:54 57.2 °F 50 °F 29.7 in Calm     77.3% 0 in 0 W/m2
03:59 57.2 °F 50.2 °F 29.7 in Calm     77.7% 0 in 0 W/m2
04:04 57 °F 50.4 °F 29.7 in Calm     78.3% 0 in 0 W/m2
04:09 57 °F 50.5 °F 29.7 in Calm     79.1% 0 in 0 W/m2
04:14 56.8 °F 50.2 °F 29.7 in Calm     78.4% 0 in 0 W/m2
04:19 56.8 °F 50.2 °F 29.7 in Calm     78.6% 0 in 0 W/m2
04:24 56.8 °F 50.2 °F 29.7 in Calm     78.3% 0 in 0 W/m2
04:29 56.8 °F 50.2 °F 29.7 in Calm     78.3% 0 in 0 W/m2
04:34 56.5 °F 50.2 °F 29.7 in Calm     79.4% 0 in 0 W/m2
04:39 56.5 °F 50.2 °F 29.7 in Calm     79.4% 0 in 0 W/m2
04:44 56.5 °F 50.4 °F 29.7 in Calm     80.1% 0 in 0 W/m2
04:49 56.7 °F 49.8 °F 29.7 in Calm     78.3% 0 in 0 W/m2
04:54 57.2 °F 50.5 °F 29.7 in Calm     78.7% 0 in 0 W/m2
04:59 57.2 °F 50.5 °F 29.7 in Calm     78.2% 0 in 0 W/m2
05:04 57.2 °F 50.5 °F 29.7 in Calm     78.6% 0 in 0 W/m2
05:09 57.2 °F 50.7 °F 29.7 in Calm     79.1% 0 in 0 W/m2
05:14 56.8 °F 50.5 °F 29.7 in Calm     79.6% 0 in 0 W/m2
05:19 56.8 °F 50.5 °F 29.7 in Calm     79.4% 0 in 0 W/m2
05:24 56.7 °F 50.7 °F 29.7 in Calm     80.3% 0 in 0 W/m2
05:29 56.7 °F 51.1 °F 29.7 in Calm     81.6% 0 in 0 W/m2
05:34 55.8 °F 50.2 °F 29.7 in Calm     81.3% 0 in 0 W/m2
05:39 55.8 °F 50 °F 29.7 in Calm     81% 0 in 0 W/m2
05:44 55.8 °F 50 °F 29.7 in Calm     81.2% 0 in 0 W/m2
05:49 55.8 °F 50 °F 29.7 in Calm     81% 0 in 0 W/m2
05:54 55.8 °F 49.8 °F 29.7 in Calm     80.6% 0 in 0 W/m2
05:59 55.8 °F 50 °F 29.7 in Calm     80.8% 0 in 0 W/m2
06:04 55.8 °F 50 °F 29.7 in Calm     81.2% 0 in 0 W/m2
06:09 55.8 °F 49.6 °F 29.7 in Calm     80.3% 0 in 0 W/m2
06:14 55.8 °F 50 °F 29.7 in Calm     80.9% 0 in 0 W/m2
06:19 55.8 °F 50 °F 29.7 in Calm     81.1% 0 in 0 W/m2
06:24 55.8 °F 49.8 °F 29.7 in Calm     80.4% 0 in 0 W/m2
06:29 55.8 °F 50.2 °F 29.7 in Calm     81.6% 0 in 0 W/m2
06:34 55.4 °F 49.8 °F 29.7 in Calm     81.8% 0 in 0 W/m2
06:39 55.4 °F 50 °F 29.7 in Calm     81.9% 0 in 0 W/m2
06:44 55.4 °F 49.8 °F 29.7 in Calm     81.6% 0 in 0 W/m2
06:49 55.4 °F 50 °F 29.7 in Calm     82% 0 in 0 W/m2
06:54 55 °F 50 °F 29.7 in Calm     82.7% 0 in 0 W/m2
06:59 55 °F 49.8 °F 29.7 in Calm     82.4% 0 in 0 W/m2
07:04 55 °F 49.8 °F 29.7 in Calm     82.7% 0 in 0 W/m2
07:09 54.9 °F 49.5 °F 29.7 in Calm     81.8% 0 in 0 W/m2
07:14 54.9 °F 49.5 °F 29.7 in Calm     82.2% 0 in 0 W/m2
07:19 54.7 °F 49.8 °F 29.7 in Calm     83.8% 0 in 0 W/m2
07:24 54.7 °F 48.9 °F 29.7 in NNW 1.7 mph 4.9 mph 81.1% 0 in 0 W/m2
07:29 54.9 °F 49.3 °F 29.7 in NW 2.2 mph 4.9 mph 81.6% 0 in 3 W/m2
07:34 54 °F 49.6 °F 29.7 in Calm   4.9 mph 85.4% 0 in 7 W/m2
07:39 53.6 °F 49.5 °F 29.7 in WNW 0.1 mph 4.9 mph 85.8% 0 in 12 W/m2
07:44 53.8 °F 49.5 °F 29.7 in Calm   2.5 mph 85.5% 0 in 20 W/m2
07:49 53.8 °F 49.5 °F 29.7 in Calm     84.7% 0 in 26 W/m2
07:54 54.9 °F 50.2 °F 29.7 in Calm     83.6% 0 in 32 W/m2
07:59 55.2 °F 49.8 °F 29.7 in Calm     81.9% 0 in 38 W/m2
08:04 55.6 °F 49.5 °F 29.7 in Calm     80% 0 in 44 W/m2
08:09 56.1 °F 49.5 °F 29.7 in Calm     78.3% 0 in 50 W/m2
08:14 57.2 °F 50.7 °F 29.7 in Calm     78.9% 0 in 55 W/m2
08:19 57.7 °F 50.2 °F 29.7 in Calm     75.8% 0 in 59 W/m2
08:24 58.1 °F 50.7 °F 29.7 in Calm     76.6% 0 in 64 W/m2
08:29 58.5 °F 50.5 °F 29.7 in Calm     75.4% 0 in 68 W/m2
08:34 58.5 °F 51.3 °F 29.7 in Calm     77% 0 in 71 W/m2
08:39 58.3 °F 51.3 °F 29.7 in Calm     77.4% 0 in 74 W/m2
08:44 58.3 °F 51.1 °F 29.7 in Calm     76.8% 0 in 77 W/m2
08:49 58.5 °F 50.5 °F 29.7 in Calm     74.9% 0 in 80 W/m2
08:54 60.6 °F 51.4 °F 29.7 in Calm     71.8% 0 in 82 W/m2
08:59 61.5 °F 51.6 °F 29.7 in Calm     70% 0 in 84 W/m2
09:04 61.7 °F 52.2 °F 29.7 in Calm     70.9% 0 in 85 W/m2
09:09 61.5 °F 53.6 °F 29.7 in Calm     74.8% 0 in 86 W/m2
09:14 60.4 °F 52.2 °F 29.7 in Calm     73.9% 0 in 87 W/m2
09:19 60.3 °F 52 °F 29.7 in Calm     74.1% 0 in 89 W/m2
09:24 60.3 °F 52.2 °F 29.7 in Calm     74.3% 0 in 91 W/m2
09:29 60.4 °F 52 °F 29.7 in Calm     73.3% 0 in 94 W/m2
09:34 61.7 °F 52.9 °F 29.7 in Calm     72.8% 0 in 97 W/m2
09:39 62.2 °F 53.4 °F 29.7 in Calm     73.2% 0 in 100 W/m2
09:44 62.2 °F 53.4 °F 29.7 in Calm     73.1% 0 in 104 W/m2
09:49 62.2 °F 53.1 °F 29.7 in ENE 0.1 mph 2.5 mph 72.1% 0 in 108 W/m2
09:54 61.5 °F 52.9 °F 29.7 in East 0.5 mph 4.9 mph 73.3% 0 in 112 W/m2
09:59 61.2 °F 52.5 °F 29.7 in Calm     73.4% 0 in 118 W/m2
10:04 61.3 °F 52 °F 29.7 in Calm     71.6% 0 in 123 W/m2
10:09 61.9 °F 52.2 °F 29.7 in Calm     70.4% 0 in 129 W/m2
10:14 62.4 °F 53.1 °F 29.7 in Calm     71.7% 0 in 134 W/m2
10:19 62.8 °F 52.9 °F 29.7 in Calm     70.2% 0 in 141 W/m2
10:24 63 °F 53.4 °F 29.7 in ENE 0.5 mph 2.5 mph 71.3% 0 in 147 W/m2
10:29 63.1 °F 53.4 °F 29.7 in East 0.2 mph 2.5 mph 70.3% 0 in 152 W/m2
10:34 64.4 °F 54.5 °F 29.7 in NNE 0.1 mph 4.9 mph 70% 0 in 159 W/m2
10:39 65.5 °F 55.8 °F 29.7 in Calm   2.5 mph 71% 0 in 164 W/m2
10:44 65.3 °F 56.1 °F 29.7 in Calm     72.1% 0 in 171 W/m2
10:49 64.9 °F 55.6 °F 29.7 in ESE 0.1 mph 2.5 mph 71.2% 0 in 179 W/m2
10:54 66 °F 55.2 °F 29.7 in East 0.1 mph 2.5 mph 68.2% 0 in 188 W/m2
10:59 66.7 °F 56.3 °F 29.7 in Calm     69.1% 0 in 194 W/m2
11:04 66.4 °F 56.3 °F 29.7 in Calm   4.9 mph 70.2% 0 in 202 W/m2
11:09 66 °F 55.8 °F 29.7 in Calm   4.9 mph 69.4% 0 in 209 W/m2
11:14 65.5 °F 55.4 °F 29.7 in East 0.4 mph 2.5 mph 69.6% 0 in 218 W/m2
11:19 65.1 °F 54.3 °F 29.7 in SE 0.2 mph 2.5 mph 68.1% 0 in 227 W/m2
11:24 65.5 °F 54 °F 29.7 in Calm   2.5 mph 66.4% 0 in 235 W/m2
11:29 65.8 °F 54.9 °F 29.7 in East 0.2 mph 2.5 mph 67.6% 0 in 244 W/m2
11:34 66.7 °F 55 °F 29.7 in ESE 0.2 mph 2.5 mph 65.9% 0 in 253 W/m2
11:39 68.2 °F 56.3 °F 29.7 in ESE 0.9 mph 4.9 mph 65.9% 0 in 267 W/m2
11:44 68 °F 56.3 °F 29.7 in SE 0.4 mph 4.9 mph 65.8% 0 in 270 W/m2
11:49 67.8 °F 55.9 °F 29.7 in South 0.4 mph 4.9 mph 65.4% 0 in 289 W/m2
11:54 68.4 °F 55.8 °F 29.7 in SSE 0.6 mph 4.9 mph 63.9% 0 in 293 W/m2
11:59 69.1 °F 56.8 °F 29.7 in East 0.2 mph 4.9 mph 65% 0 in 307 W/m2
12:04 68.9 °F 56.7 °F 29.7 in ESE 1.6 mph 7.6 mph 64.8% 0 in 314 W/m2
12:09 68.5 °F 56.8 °F 29.7 in East 0.2 mph 7.6 mph 66.1% 0 in 345 W/m2
12:14 68 °F 56.5 °F 29.7 in SSE 0.2 mph 4.9 mph 66.6% 0 in 358 W/m2
12:19 67.3 °F 55.2 °F 29.7 in SSE 0.2 mph 4.9 mph 65.3% 0 in 385 W/m2
12:24 67.3 °F 55.4 °F 29.7 in Calm     65.9% 0 in 395 W/m2
12:29 67.5 °F 55 °F 29.7 in ESE 0.1 mph 2.5 mph 64.4% 0 in 415 W/m2
12:34 67.6 °F 55.4 °F 29.7 in ESE 0.2 mph 4.9 mph 65% 0 in 419 W/m2
12:39 67.6 °F 55.6 °F 29.7 in SSE 0.4 mph 4.9 mph 65.4% 0 in 414 W/m2
12:44 67.6 °F 56.1 °F 29.7 in NNE 0.1 mph 4.9 mph 66.8% 0 in 428 W/m2
12:49 67.5 °F 56.7 °F 29.7 in ENE 0.3 mph 4.9 mph 68.4% 0 in 216 W/m2
12:54 66.4 °F 56.1 °F 29.7 in ENE 0.2 mph 2.5 mph 69.1% 0 in 461 W/m2
12:59 65.1 °F 54.5 °F 29.7 in SE 0.4 mph 4.9 mph 68.4% 0 in 450 W/m2
13:04 65.3 °F 54.5 °F 29.7 in SSE 0.7 mph 4.9 mph 67.9% 0 in 467 W/m2
13:09 65.5 °F 55.2 °F 29.7 in ENE 1.3 mph 4.9 mph 69.3% 0 in 478 W/m2
13:14 65.8 °F 55.4 °F 29.7 in ENE 0.7 mph 7.6 mph 69.2% 0 in 468 W/m2
13:19 67.1 °F 55.9 °F 29.7 in SE 0.6 mph 4.9 mph 67.3% 0 in 470 W/m2
13:24 67.3 °F 55.6 °F 29.7 in SE 0.8 mph 7.6 mph 66.1% 0 in 482 W/m2
13:29 67.5 °F 55.8 °F 29.7 in Calm   2.5 mph 66.3% 0 in 484 W/m2
13:34 67.3 °F 56.3 °F 29.7 in East 0.5 mph 7.6 mph 67.8% 0 in 491 W/m2
13:39 66.7 °F 55.4 °F 29.7 in Calm   7.6 mph 67.2% 0 in 484 W/m2
13:44 66.9 °F 55.9 °F 29.7 in ENE 1.4 mph 7.6 mph 68.1% 0 in 494 W/m2
13:49 67.1 °F 55.9 °F 29.7 in ENE 1.4 mph 7.6 mph 67.6% 0 in 516 W/m2
13:54 67.8 °F 55.9 °F 29.7 in SE 0.9 mph 4.9 mph 65.9% 0 in 504 W/m2
13:59 69.4 °F 57 °F 29.7 in SSE 0.9 mph 4.9 mph 64.4% 0 in 517 W/m2
14:04 69.6 °F 56.8 °F 29.7 in South 0.2 mph 7.6 mph 63.8% 0 in 561 W/m2
14:09 70 °F 56.8 °F 29.7 in SSE 1.6 mph 7.6 mph 63.1% 0 in 564 W/m2
14:14 70.2 °F 57.4 °F 29.7 in South 3.4 mph 7.6 mph 64% 0 in 247 W/m2
14:19 70 °F 57 °F 29.7 in SSW 0.7 mph 4.9 mph 63.4% 0 in 172 W/m2
14:24 70 °F 57 °F 29.7 in South 0.2 mph 4.9 mph 63.6% 0 in 166 W/m2
14:29 70 °F 57.2 °F 29.7 in SSE 1.6 mph 4.9 mph 63.8% 0 in 169 W/m2
14:34 70 °F 57 °F 29.7 in SSE 2.4 mph 7.6 mph 63.5% 0 in 163 W/m2
14:39 69.4 °F 56.8 °F 29.7 in SE 1.6 mph 7.6 mph 64.1% 0 in 150 W/m2
14:44 69.4 °F 57.4 °F 29.7 in Calm   4.9 mph 65.7% 0 in 119 W/m2
14:49 69.3 °F 58.1 °F 29.7 in Calm     67.7% 0 in 110 W/m2
14:54 69.1 °F 57.6 °F 29.7 in SE 0.2 mph 7.6 mph 66.9% 0 in 122 W/m2
14:59 68.5 °F 57.2 °F 29.7 in Calm     67% 0 in 128 W/m2
15:04 68.5 °F 57 °F 29.7 in Calm     66.6% 0 in 146 W/m2
15:09 68.7 °F 57.2 °F 29.7 in Calm     66.9% 0 in 520 W/m2
15:14 68.9 °F 56.5 °F 29.7 in South 0.2 mph 4.9 mph 64.8% 0 in 520 W/m2
15:19 69.8 °F 57.2 °F 29.6 in SSE 1.1 mph 4.9 mph 64.2% 0 in 497 W/m2
15:24 70 °F 56.7 °F 29.6 in SSW 0.2 mph 4.9 mph 62.8% 0 in 500 W/m2
15:29 70.2 °F 56.5 °F 29.6 in SSE 0.4 mph 4.9 mph 61.6% 0 in 481 W/m2
15:34 70.7 °F 56.5 °F 29.6 in Calm   2.5 mph 60.6% 0 in 452 W/m2
15:39 73 °F 58.1 °F 29.6 in SSE 0.1 mph 2.5 mph 59.4% 0 in 447 W/m2
15:44 73.2 °F 58.3 °F 29.6 in SE 0.2 mph 7.6 mph 59.6% 0 in 471 W/m2
15:49 73.4 °F 58.6 °F 29.6 in Calm     60% 0 in 475 W/m2
15:54 73.4 °F 58.5 °F 29.6 in SSE 1.1 mph 4.9 mph 59.8% 0 in 456 W/m2
15:59 73.2 °F 58.3 °F 29.6 in SSE 0.2 mph 4.9 mph 59.3% 0 in 428 W/m2
16:04 73.4 °F 57.6 °F 29.6 in SE 0.1 mph 4.9 mph 57.9% 0 in 493 W/m2
16:09 73.4 °F 57.6 °F 29.6 in South 0.8 mph 7.6 mph 57.6% 0 in 524 W/m2
16:14 73.8 °F 57 °F 29.6 in Calm   7.6 mph 56.1% 0 in 536 W/m2
16:19 74.1 °F 57.7 °F 29.6 in Calm     56.9% 0 in 540 W/m2
16:24 74.1 °F 56.8 °F 29.6 in East 0.5 mph 4.9 mph 55% 0 in 156 W/m2
16:29 73.8 °F 57.9 °F 29.6 in Calm   2.5 mph 57.6% 0 in 134 W/m2
16:34 73.2 °F 57 °F 29.6 in NE 1.3 mph 7.6 mph 57% 0 in 132 W/m2
16:39 70.7 °F 55.4 °F 29.6 in NE 0.3 mph 4.9 mph 58.2% 0 in 130 W/m2
16:44 70.3 °F 55 °F 29.6 in Calm   2.5 mph 58.1% 0 in 121 W/m2
16:49 70.5 °F 55.2 °F 29.6 in Calm     58.4% 0 in 128 W/m2
16:54 70.5 °F 55.2 °F 29.6 in Calm   2.5 mph 58.2% 0 in 125 W/m2
16:59 70.3 °F 54.7 °F 29.6 in North 0.1 mph 2.5 mph 57.6% 0 in 316 W/m2
17:04 70.3 °F 54.3 °F 29.6 in Calm     56.9% 0 in 137 W/m2
17:09 70.5 °F 54.5 °F 29.6 in Calm     57% 0 in 172 W/m2
17:14 70.7 °F 55.4 °F 29.6 in Calm     58.7% 0 in 274 W/m2
17:19 70.7 °F 55 °F 29.6 in Calm     57.6% 0 in 178 W/m2
17:24 70.7 °F 55 °F 29.6 in Calm     57.7% 0 in 106 W/m2
17:29 70.7 °F 54.7 °F 29.6 in Calm     56.9% 0 in 91 W/m2
17:34 70.9 °F 54.9 °F 29.6 in Calm     57.1% 0 in 68 W/m2
17:39 70.2 °F 55 °F 29.6 in South 0.2 mph 4.9 mph 58.8% 0 in 59 W/m2
17:44 69.8 °F 55.2 °F 29.6 in Calm     59.9% 0 in 53 W/m2
17:49 69.8 °F 54.9 °F 29.6 in Calm     59% 0 in 46 W/m2
17:54 69.6 °F 55.9 °F 29.6 in Calm     62.2% 0 in 46 W/m2
17:59 68.5 °F 55 °F 29.6 in Calm     62.6% 0 in 44 W/m2
18:04 68.2 °F 55.9 °F 29.6 in Calm     64.9% 0 in 42 W/m2
18:09 68 °F 56.5 °F 29.6 in Calm     66.2% 0 in 40 W/m2
18:14 67.8 °F 56.5 °F 29.6 in Calm     66.6% 0 in 37 W/m2
18:19 66.9 °F 56.1 °F 29.6 in Calm     68.6% 0 in 36 W/m2
18:24 66.6 °F 56.3 °F 29.6 in Calm     69.8% 0 in 34 W/m2
18:29 66.6 °F 56.1 °F 29.6 in Calm     69.1% 0 in 33 W/m2
18:34 66.4 °F 55.9 °F 29.6 in Calm     69.2% 0 in 27 W/m2
18:39 66.2 °F 55.9 °F 29.6 in Calm     69.8% 0 in 24 W/m2
18:44 66 °F 56.3 °F 29.6 in Calm     70.9% 0 in 20 W/m2
18:49 66 °F 55.6 °F 29.6 in Calm     69.1% 0 in 16 W/m2
18:54 66 °F 55.9 °F 29.6 in Calm   2.5 mph 70% 0 in 11 W/m2
18:59 65.3 °F 56.1 °F 29.7 in South 0.2 mph 4.9 mph 71.8% 0 in 7 W/m2
19:04 64.9 °F 55.8 °F 29.7 in SSE 2.7 mph 10.1 mph 72.1% 0 in 5 W/m2
19:09 64.9 °F 55.8 °F 29.6 in South 4.5 mph 15 mph 72% 0 in 2 W/m2
19:14 64.9 °F 55.9 °F 29.7 in South 2 mph 7.6 mph 72.6% 0 in 0 W/m2
19:19 64.6 °F 55.8 °F 29.7 in Calm   4.9 mph 73.1% 0 in 0 W/m2
19:24 64.4 °F 55.4 °F 29.7 in Calm     72.2% 0 in 0 W/m2
19:29 64.4 °F 55 °F 29.7 in Calm     71.6% 0 in 0 W/m2
19:34 64.4 °F 55.4 °F 29.7 in Calm     72.7% 0 in 0 W/m2
19:39 64.2 °F 55.6 °F 29.7 in Calm     73.3% 0 in 0 W/m2
19:44 64 °F 55.6 °F 29.7 in Calm     73.7% 0 in 0 W/m2
19:49 64 °F 55.8 °F 29.7 in Calm     74.8% 0 in 0 W/m2
19:54 63.9 °F 56.1 °F 29.7 in Calm     76% 0 in 0 W/m2
19:59 63.5 °F 55.8 °F 29.7 in Calm     76% 0 in 0 W/m2
20:04 63.1 °F 55 °F 29.7 in Calm     75.1% 0 in 0 W/m2
20:09 63.1 °F 55 °F 29.7 in Calm     75.5% 0 in 0 W/m2
20:14 63 °F 55.4 °F 29.7 in Calm     76.6% 0 in 0 W/m2
20:19 62.2 °F 55 °F 29.7 in Calm     77.2% 0 in 0 W/m2
20:24 61.9 °F 54.5 °F 29.7 in Calm     76.7% 0 in 0 W/m2
20:29 61.9 °F 54.5 °F 29.7 in Calm     76.7% 0 in 0 W/m2
20:34 61.7 °F 54.5 °F 29.7 in Calm     76.7% 0 in 0 W/m2
20:39 61.7 °F 54.3 °F 29.7 in Calm     76.4% 0 in 0 W/m2
20:44 61.7 °F 54 °F 29.7 in Calm     75.7% 0 in 0 W/m2
20:49 61.9 °F 53.8 °F 29.7 in Calm     75% 0 in 0 W/m2
20:54 61.9 °F 53.8 °F 29.7 in North 0.1 mph 4.9 mph 75% 0 in 0 W/m2
20:59 61.7 °F 53.8 °F 29.7 in Calm     75% 0 in 0 W/m2
21:04 61.5 °F 53.8 °F 29.7 in Calm     75.3% 0 in 0 W/m2
21:09 61.5 °F 54.3 °F 29.7 in Calm     76.8% 0 in 0 W/m2
21:14 61.3 °F 54.3 °F 29.7 in Calm     77% 0 in 0 W/m2
21:19 61.3 °F 53.8 °F 29.7 in Calm     76% 0 in 0 W/m2
21:24 61.2 °F 53.6 °F 29.7 in Calm     75.9% 0 in 0 W/m2
21:29 61.2 °F 53.1 °F 29.7 in Calm     74.6% 0 in 0 W/m2
21:34 61.2 °F 53.1 °F 29.7 in Calm     74.7% 0 in 0 W/m2
21:39 61.5 °F 52.3 °F 29.7 in Calm     71.9% 0 in 0 W/m2
21:44 62.1 °F 52.5 °F 29.7 in Calm     71% 0 in 0 W/m2
21:49 62.2 °F 51.6 °F 29.7 in Calm     68% 0 in 0 W/m2
21:54 62.2 °F 51.1 °F 29.7 in Calm   2.5 mph 66.9% 0 in 0 W/m2
21:59 62.8 °F 51.4 °F 29.7 in Calm   2.5 mph 66.6% 0 in 0 W/m2
22:04 63.1 °F 51.8 °F 29.7 in Calm     66.4% 0 in 0 W/m2
22:09 63 °F 52 °F 29.7 in Calm     67.7% 0 in 0 W/m2
22:14 63 °F 52 °F 29.7 in Calm     67.5% 0 in 0 W/m2
22:19 62.8 °F 51.8 °F 29.7 in Calm     67.4% 0 in 0 W/m2
22:24 62.6 °F 51.3 °F 29.7 in Calm   2.5 mph 66.7% 0 in 0 W/m2
22:29 62.6 °F 51.8 °F 29.7 in Calm     67.7% 0 in 0 W/m2
22:34 62.8 °F 51.6 °F 29.7 in Calm     67.1% 0 in 0 W/m2
22:39 63 °F 51.6 °F 29.7 in Calm     66.3% 0 in 0 W/m2
22:44 63.1 °F 52 °F 29.7 in Calm   2.5 mph 66.8% 0 in 0 W/m2
22:49 63.1 °F 51.8 °F 29.7 in Calm     66.4% 0 in 0 W/m2
22:54 63.3 °F 51.8 °F 29.7 in Calm     66% 0 in 0 W/m2
22:59 63.3 °F 52 °F 29.7 in Calm   2.5 mph 66.2% 0 in 0 W/m2
23:04 63.3 °F 51.8 °F 29.7 in Calm     66% 0 in 0 W/m2
23:09 63.3 °F 51.8 °F 29.7 in Calm     66% 0 in 0 W/m2
23:14 63.3 °F 52 °F 29.7 in Calm     66.6% 0 in 0 W/m2
23:19 63.5 °F 51.8 °F 29.7 in Calm   2.5 mph 65.9% 0 in 0 W/m2
23:24 63.9 °F 51.6 °F 29.7 in South 0.3 mph 4.9 mph 64.5% 0 in 0 W/m2
23:29 63.9 °F 51.4 °F 29.7 in Calm   2.5 mph 64.1% 0 in 0 W/m2
23:34 63.9 °F 52 °F 29.7 in SSW 0.2 mph 4.9 mph 65.3% 0 in 0 W/m2
23:39 63.9 °F 52 °F 29.7 in Calm     65.6% 0 in 0 W/m2
23:44 62.8 °F 51.4 °F 29.7 in Calm     66.7% 0 in 0 W/m2
23:49 63 °F 51.1 °F 29.7 in North 1.4 mph 7.6 mph 65.2% 0 in 0 W/m2
23:54 63 °F 51.8 °F 29.7 in Calm   4.9 mph 66.8% 0 in 0 W/m2
23:59 63 °F 52.2 °F 29.7 in Calm     68% 0 in 0 W/m2
Juneau County Weather
Compliments of Weather Underground - 2 mb